sensor_id;sensor_type;location;lat;lon;timestamp;pressure;altitude;pressure_sealevel;temperature;humidity
68456;BME280;55437;55.046;38.838;2023-03-03T00:00:46;98716.97;;;0.65;66.63
68456;BME280;55437;55.046;38.838;2023-03-03T00:03:16;98715.38;;;0.58;66.58
68456;BME280;55437;55.046;38.838;2023-03-03T00:05:42;98714.53;;;0.54;66.76
68456;BME280;55437;55.046;38.838;2023-03-03T00:08:08;98715.41;;;0.50;66.98
68456;BME280;55437;55.046;38.838;2023-03-03T00:10:35;98709.56;;;0.48;67.10
68456;BME280;55437;55.046;38.838;2023-03-03T00:13:02;98702.84;;;0.46;66.97
68456;BME280;55437;55.046;38.838;2023-03-03T00:15:30;98706.22;;;0.45;67.21
68456;BME280;55437;55.046;38.838;2023-03-03T00:17:55;98699.47;;;0.48;67.17
68456;BME280;55437;55.046;38.838;2023-03-03T00:22:51;98687.72;;;0.44;67.01
68456;BME280;55437;55.046;38.838;2023-03-03T00:27:57;98686.13;;;0.35;67.36
68456;BME280;55437;55.046;38.838;2023-03-03T00:30:44;98679.41;;;0.34;67.37
68456;BME280;55437;55.046;38.838;2023-03-03T00:33:21;98673.50;;;0.35;67.11
68456;BME280;55437;55.046;38.838;2023-03-03T00:35:52;98664.25;;;0.36;67.40
68456;BME280;55437;55.046;38.838;2023-03-03T00:38:21;98650.72;;;0.39;67.33
68456;BME280;55437;55.046;38.838;2023-03-03T00:40:47;98656.63;;;0.38;67.17
68456;BME280;55437;55.046;38.838;2023-03-03T00:45:54;98648.28;;;0.31;67.53
68456;BME280;55437;55.046;38.838;2023-03-03T00:48:29;98651.69;;;0.25;67.65
68456;BME280;55437;55.046;38.838;2023-03-03T00:51:00;98645.81;;;0.26;67.72
68456;BME280;55437;55.046;38.838;2023-03-03T00:53:28;98643.25;;;0.31;67.62
68456;BME280;55437;55.046;38.838;2023-03-03T00:55:55;98639.00;;;0.36;67.48
68456;BME280;55437;55.046;38.838;2023-03-03T00:58:23;98635.50;;;0.48;67.32
68456;BME280;55437;55.046;38.838;2023-03-03T01:00:54;98628.63;;;0.60;67.56
68456;BME280;55437;55.046;38.838;2023-03-03T01:03:26;98623.44;;;0.71;67.32
68456;BME280;55437;55.046;38.838;2023-03-03T01:05:53;98624.13;;;0.84;67.14
68456;BME280;55437;55.046;38.838;2023-03-03T01:08:20;98622.34;;;0.92;67.07
68456;BME280;55437;55.046;38.838;2023-03-03T01:10:52;98623.06;;;1.00;67.01
68456;BME280;55437;55.046;38.838;2023-03-03T01:13:21;98623.78;;;1.09;66.86
68456;BME280;55437;55.046;38.838;2023-03-03T01:15:49;98626.22;;;1.17;66.62
68456;BME280;55437;55.046;38.838;2023-03-03T01:18:15;98608.44;;;1.22;66.51
68456;BME280;55437;55.046;38.838;2023-03-03T01:20:41;98604.19;;;1.25;66.25
68456;BME280;55437;55.046;38.838;2023-03-03T01:23:06;98596.53;;;1.30;66.29
68456;BME280;55437;55.046;38.838;2023-03-03T01:25:32;98601.50;;;1.34;65.95
68456;BME280;55437;55.046;38.838;2023-03-03T01:28:17;98593.16;;;1.31;66.21
68456;BME280;55437;55.046;38.838;2023-03-03T01:30:43;98588.84;;;1.36;65.94
68456;BME280;55437;55.046;38.838;2023-03-03T01:33:28;98591.31;;;1.40;66.03
68456;BME280;55437;55.046;38.838;2023-03-03T01:35:54;98585.38;;;1.44;65.94
68456;BME280;55437;55.046;38.838;2023-03-03T01:38:21;98582.88;;;1.41;65.46
68456;BME280;55437;55.046;38.838;2023-03-03T01:40:55;98584.72;;;1.32;65.63
68456;BME280;55437;55.046;38.838;2023-03-03T01:43:22;98584.84;;;1.21;65.90
68456;BME280;55437;55.046;38.838;2023-03-03T01:48:18;98574.81;;;1.17;65.70
68456;BME280;55437;55.046;38.838;2023-03-03T01:50:56;98575.69;;;1.14;65.67
68456;BME280;55437;55.046;38.838;2023-03-03T01:53:32;98568.94;;;1.15;65.55
68456;BME280;55437;55.046;38.838;2023-03-03T01:56:00;98565.63;;;1.09;66.03
68456;BME280;55437;55.046;38.838;2023-03-03T01:58:34;98569.84;;;1.09;65.94
68456;BME280;55437;55.046;38.838;2023-03-03T02:01:07;98575.63;;;1.19;66.19
68456;BME280;55437;55.046;38.838;2023-03-03T02:03:35;98571.34;;;1.22;66.04
68456;BME280;55437;55.046;38.838;2023-03-03T02:06:07;98577.97;;;1.32;65.97
68456;BME280;55437;55.046;38.838;2023-03-03T02:11:21;98568.44;;;1.47;65.85
68456;BME280;55437;55.046;38.838;2023-03-03T02:13:47;98555.75;;;1.51;65.61
68456;BME280;55437;55.046;38.838;2023-03-03T02:16:13;98553.97;;;1.56;65.79
68456;BME280;55437;55.046;38.838;2023-03-03T02:18:39;98557.28;;;1.60;65.75
68456;BME280;55437;55.046;38.838;2023-03-03T02:21:14;98562.44;;;1.55;65.54
68456;BME280;55437;55.046;38.838;2023-03-03T02:26:29;98560.47;;;1.71;65.60
68456;BME280;55437;55.046;38.838;2023-03-03T02:29:00;98556.13;;;1.79;65.21
68456;BME280;55437;55.046;38.838;2023-03-03T02:31:29;98559.38;;;1.84;65.12
68456;BME280;55437;55.046;38.838;2023-03-03T02:33:56;98566.94;;;1.87;64.94
68456;BME280;55437;55.046;38.838;2023-03-03T02:36:27;98572.88;;;1.85;65.30
68456;BME280;55437;55.046;38.838;2023-03-03T02:39:14;98561.91;;;1.86;65.41
68456;BME280;55437;55.046;38.838;2023-03-03T02:44:28;98558.34;;;1.94;65.73
68456;BME280;55437;55.046;38.838;2023-03-03T02:47:13;98556.53;;;2.04;64.92
68456;BME280;55437;55.046;38.838;2023-03-03T02:49:39;98551.50;;;2.01;65.36
68456;BME280;55437;55.046;38.838;2023-03-03T02:52:09;98545.56;;;2.03;65.52
68456;BME280;55437;55.046;38.838;2023-03-03T02:54:37;98543.78;;;2.07;65.21
68456;BME280;55437;55.046;38.838;2023-03-03T02:57:06;98536.97;;;2.10;64.90
68456;BME280;55437;55.046;38.838;2023-03-03T02:59:34;98532.81;;;2.06;65.10
68456;BME280;55437;55.046;38.838;2023-03-03T03:02:11;98533.75;;;2.04;65.06
68456;BME280;55437;55.046;38.838;2023-03-03T03:04:37;98528.75;;;1.99;65.19
68456;BME280;55437;55.046;38.838;2023-03-03T03:07:03;98523.69;;;1.99;65.43
68456;BME280;55437;55.046;38.838;2023-03-03T03:09:31;98515.19;;;2.03;65.13
68456;BME280;55437;55.046;38.838;2023-03-03T03:11:58;98524.25;;;2.13;65.18
68456;BME280;55437;55.046;38.838;2023-03-03T03:14:27;98517.47;;;2.15;65.08
68456;BME280;55437;55.046;38.838;2023-03-03T03:16:55;98518.38;;;2.13;65.49
68456;BME280;55437;55.046;38.838;2023-03-03T03:19:20;98509.94;;;2.12;65.47
68456;BME280;55437;55.046;38.838;2023-03-03T03:21:46;98511.41;;;2.24;65.51
68456;BME280;55437;55.046;38.838;2023-03-03T03:24:12;98505.34;;;2.30;65.66
68456;BME280;55437;55.046;38.838;2023-03-03T03:26:42;98511.13;;;2.38;65.22
68456;BME280;55437;55.046;38.838;2023-03-03T03:29:09;98502.47;;;2.48;65.04
68456;BME280;55437;55.046;38.838;2023-03-03T03:31:54;98504.78;;;2.59;65.16
68456;BME280;55437;55.046;38.838;2023-03-03T03:34:23;98496.22;;;2.64;65.03
68456;BME280;55437;55.046;38.838;2023-03-03T03:36:52;98490.31;;;2.64;65.06
68456;BME280;55437;55.046;38.838;2023-03-03T03:39:21;98487.59;;;2.71;64.98
68456;BME280;55437;55.046;38.838;2023-03-03T03:41:49;98491.00;;;2.70;65.01
68456;BME280;55437;55.046;38.838;2023-03-03T03:44:15;98495.13;;;2.74;64.93
68456;BME280;55437;55.046;38.838;2023-03-03T03:46:41;98493.22;;;2.84;64.71
68456;BME280;55437;55.046;38.838;2023-03-03T03:49:09;98493.88;;;2.92;64.56
68456;BME280;55437;55.046;38.838;2023-03-03T03:51:37;98482.91;;;2.92;64.52
68456;BME280;55437;55.046;38.838;2023-03-03T03:54:07;98487.06;;;2.96;64.63
68456;BME280;55437;55.046;38.838;2023-03-03T03:56:34;98487.81;;;2.99;64.39
68456;BME280;55437;55.046;38.838;2023-03-03T03:59:02;98485.28;;;2.99;64.23
68456;BME280;55437;55.046;38.838;2023-03-03T04:01:29;98483.50;;;3.03;64.38
68456;BME280;55437;55.046;38.838;2023-03-03T04:03:57;98474.06;;;3.09;64.44
68456;BME280;55437;55.046;38.838;2023-03-03T04:06:23;98465.44;;;3.15;64.33
68456;BME280;55437;55.046;38.838;2023-03-03T04:08:50;98475.44;;;3.22;64.13
68456;BME280;55437;55.046;38.838;2023-03-03T04:11:19;98475.97;;;3.35;63.93
68456;BME280;55437;55.046;38.838;2023-03-03T04:13:45;98478.38;;;3.40;63.48
68456;BME280;55437;55.046;38.838;2023-03-03T04:16:11;98478.63;;;3.29;63.78
68456;BME280;55437;55.046;38.838;2023-03-03T04:18:41;98477.63;;;3.36;63.70
68456;BME280;55437;55.046;38.838;2023-03-03T04:21:11;98478.25;;;3.44;63.58
68456;BME280;55437;55.046;38.838;2023-03-03T04:23:37;98467.81;;;3.56;63.47
68456;BME280;55437;55.046;38.838;2023-03-03T04:26:03;98474.44;;;3.62;63.21
68456;BME280;55437;55.046;38.838;2023-03-03T04:28:29;98474.25;;;3.68;63.32
68456;BME280;55437;55.046;38.838;2023-03-03T04:30:56;98471.75;;;3.67;63.08
68456;BME280;55437;55.046;38.838;2023-03-03T04:33:23;98472.59;;;3.67;62.82
68456;BME280;55437;55.046;38.838;2023-03-03T04:35:48;98470.28;;;3.59;63.31
68456;BME280;55437;55.046;38.838;2023-03-03T04:38:16;98473.75;;;3.55;63.45
68456;BME280;55437;55.046;38.838;2023-03-03T04:40:42;98475.34;;;3.59;63.48
68456;BME280;55437;55.046;38.838;2023-03-03T04:43:10;98470.97;;;3.65;63.22
68456;BME280;55437;55.046;38.838;2023-03-03T04:45:36;98475.94;;;3.69;62.83
68456;BME280;55437;55.046;38.838;2023-03-03T04:48:03;98468.28;;;3.71;63.09
68456;BME280;55437;55.046;38.838;2023-03-03T04:50:29;98464.63;;;3.81;62.84
68456;BME280;55437;55.046;38.838;2023-03-03T04:52:55;98459.22;;;3.93;62.66
68456;BME280;55437;55.046;38.838;2023-03-03T04:55:21;98465.97;;;3.94;62.51
68456;BME280;55437;55.046;38.838;2023-03-03T04:57:47;98461.78;;;3.91;62.85
68456;BME280;55437;55.046;38.838;2023-03-03T05:00:14;98471.00;;;3.95;62.79
68456;BME280;55437;55.046;38.838;2023-03-03T05:02:40;98465.88;;;3.97;62.55
68456;BME280;55437;55.046;38.838;2023-03-03T05:05:07;98454.72;;;4.03;62.63
68456;BME280;55437;55.046;38.838;2023-03-03T05:07:34;98461.41;;;4.05;62.61
68456;BME280;55437;55.046;38.838;2023-03-03T05:10:00;98461.06;;;4.17;62.66
68456;BME280;55437;55.046;38.838;2023-03-03T05:12:26;98462.78;;;4.17;62.66
68456;BME280;55437;55.046;38.838;2023-03-03T05:14:53;98468.78;;;4.14;62.54
68456;BME280;55437;55.046;38.838;2023-03-03T05:17:19;98461.88;;;4.19;62.69
68456;BME280;55437;55.046;38.838;2023-03-03T05:19:44;98456.72;;;4.22;62.57
68456;BME280;55437;55.046;38.838;2023-03-03T05:22:10;98456.88;;;4.16;62.71
68456;BME280;55437;55.046;38.838;2023-03-03T05:24:36;98459.44;;;4.15;62.99
68456;BME280;55437;55.046;38.838;2023-03-03T05:27:02;98461.38;;;4.07;63.17
68456;BME280;55437;55.046;38.838;2023-03-03T05:29:28;98465.53;;;4.09;63.35
68456;BME280;55437;55.046;38.838;2023-03-03T05:31:59;98462.03;;;4.13;63.34
68456;BME280;55437;55.046;38.838;2023-03-03T05:34:25;98456.25;;;4.08;63.21
68456;BME280;55437;55.046;38.838;2023-03-03T05:36:51;98460.63;;;4.03;63.41
68456;BME280;55437;55.046;38.838;2023-03-03T05:39:17;98459.66;;;4.07;63.16
68456;BME280;55437;55.046;38.838;2023-03-03T05:41:43;98461.19;;;4.13;63.14
68456;BME280;55437;55.046;38.838;2023-03-03T05:44:09;98462.59;;;4.23;62.73
68456;BME280;55437;55.046;38.838;2023-03-03T05:46:35;98455.66;;;4.29;62.34
68456;BME280;55437;55.046;38.838;2023-03-03T05:49:01;98452.28;;;4.29;62.54
68456;BME280;55437;55.046;38.838;2023-03-03T05:51:27;98453.94;;;4.30;62.04
68456;BME280;55437;55.046;38.838;2023-03-03T05:53:52;98459.66;;;4.37;61.92
68456;BME280;55437;55.046;38.838;2023-03-03T05:56:19;98462.84;;;4.45;61.63
68456;BME280;55437;55.046;38.838;2023-03-03T05:58:45;98462.63;;;4.51;61.36
68456;BME280;55437;55.046;38.838;2023-03-03T06:01:11;98466.81;;;4.53;61.03
68456;BME280;55437;55.046;38.838;2023-03-03T06:03:37;98464.72;;;4.66;60.85
68456;BME280;55437;55.046;38.838;2023-03-03T06:06:09;98465.53;;;4.68;60.60
68456;BME280;55437;55.046;38.838;2023-03-03T06:08:57;98469.84;;;4.64;60.59
68456;BME280;55437;55.046;38.838;2023-03-03T06:11:23;98466.53;;;4.62;60.43
68456;BME280;55437;55.046;38.838;2023-03-03T06:13:49;98474.19;;;4.61;60.31
68456;BME280;55437;55.046;38.838;2023-03-03T06:16:15;98472.53;;;4.60;60.20
68456;BME280;55437;55.046;38.838;2023-03-03T06:18:41;98469.31;;;4.55;60.17
68456;BME280;55437;55.046;38.838;2023-03-03T06:21:07;98466.75;;;4.55;60.24
68456;BME280;55437;55.046;38.838;2023-03-03T06:23:34;98464.31;;;4.52;60.33
68456;BME280;55437;55.046;38.838;2023-03-03T06:26:00;98463.47;;;4.51;60.22
68456;BME280;55437;55.046;38.838;2023-03-03T06:28:44;98467.78;;;4.48;60.29
68456;BME280;55437;55.046;38.838;2023-03-03T06:31:10;98457.44;;;4.55;60.15
68456;BME280;55437;55.046;38.838;2023-03-03T06:33:36;98466.44;;;4.65;59.69
68456;BME280;55437;55.046;38.838;2023-03-03T06:36:03;98460.09;;;4.79;59.46
68456;BME280;55437;55.046;38.838;2023-03-03T06:38:28;98461.34;;;4.93;59.29
68456;BME280;55437;55.046;38.838;2023-03-03T06:40:54;98467.25;;;4.94;59.16
68456;BME280;55437;55.046;38.838;2023-03-03T06:43:20;98470.66;;;4.94;59.10
68456;BME280;55437;55.046;38.838;2023-03-03T06:45:46;98465.47;;;4.96;59.05
68456;BME280;55437;55.046;38.838;2023-03-03T06:48:31;98462.50;;;5.10;58.91
68456;BME280;55437;55.046;38.838;2023-03-03T06:51:02;98454.88;;;5.10;58.65
68456;BME280;55437;55.046;38.838;2023-03-03T06:53:30;98453.94;;;5.12;58.66
68456;BME280;55437;55.046;38.838;2023-03-03T06:55:57;98455.63;;;5.13;58.73
68456;BME280;55437;55.046;38.838;2023-03-03T06:58:25;98452.28;;;5.11;58.83
68456;BME280;55437;55.046;38.838;2023-03-03T07:01:00;98453.13;;;5.12;58.77
68456;BME280;55437;55.046;38.838;2023-03-03T07:03:34;98455.34;;;5.21;58.53
68456;BME280;55437;55.046;38.838;2023-03-03T07:06:01;98449.13;;;5.31;58.51
68456;BME280;55437;55.046;38.838;2023-03-03T07:08:31;98451.59;;;5.32;58.35
68456;BME280;55437;55.046;38.838;2023-03-03T07:11:01;98458.41;;;5.57;58.03
68456;BME280;55437;55.046;38.838;2023-03-03T07:13:31;98456.16;;;5.72;57.83
68456;BME280;55437;55.046;38.838;2023-03-03T07:16:09;98455.53;;;5.67;57.56
68456;BME280;55437;55.046;38.838;2023-03-03T07:18:57;98460.28;;;5.52;58.29
68456;BME280;55437;55.046;38.838;2023-03-03T07:21:34;98450.16;;;5.50;57.83
68456;BME280;55437;55.046;38.838;2023-03-03T07:24:32;98464.78;;;5.43;58.03
68456;BME280;55437;55.046;38.838;2023-03-03T07:27:19;98461.34;;;5.44;57.86
68456;BME280;55437;55.046;38.838;2023-03-03T07:29:49;98459.97;;;5.36;57.95
68456;BME280;55437;55.046;38.838;2023-03-03T07:32:37;98466.75;;;5.35;57.73
68456;BME280;55437;55.046;38.838;2023-03-03T07:35:40;98460.38;;;5.49;57.64
68456;BME280;55437;55.046;38.838;2023-03-03T07:40:56;98454.69;;;5.67;56.86
68456;BME280;55437;55.046;38.838;2023-03-03T07:43:49;98457.38;;;5.62;56.48
68456;BME280;55437;55.046;38.838;2023-03-03T07:49:23;98459.56;;;5.73;56.18
68456;BME280;55437;55.046;38.838;2023-03-03T07:51:56;98456.63;;;5.84;55.80
68456;BME280;55437;55.046;38.838;2023-03-03T07:54:37;98458.19;;;5.88;54.99
68456;BME280;55437;55.046;38.838;2023-03-03T07:57:34;98462.44;;;5.89;54.63
68456;BME280;55437;55.046;38.838;2023-03-03T08:03:03;98458.44;;;5.80;54.10
68456;BME280;55437;55.046;38.838;2023-03-03T08:05:42;98457.28;;;5.90;53.86
68456;BME280;55437;55.046;38.838;2023-03-03T08:10:52;98455.50;;;5.92;53.15
68456;BME280;55437;55.046;38.838;2023-03-03T08:13:21;98465.00;;;5.89;53.42
68456;BME280;55437;55.046;38.838;2023-03-03T08:18:41;98469.69;;;5.74;53.81
68456;BME280;55437;55.046;38.838;2023-03-03T08:21:17;98469.00;;;5.69;53.40
68456;BME280;55437;55.046;38.838;2023-03-03T08:23:45;98484.28;;;5.69;53.92
68456;BME280;55437;55.046;38.838;2023-03-03T08:26:11;98476.19;;;5.58;54.03
68456;BME280;55437;55.046;38.838;2023-03-03T08:28:38;98471.34;;;5.51;53.85
68456;BME280;55437;55.046;38.838;2023-03-03T08:31:04;98479.88;;;5.50;54.05
68456;BME280;55437;55.046;38.838;2023-03-03T08:33:30;98477.31;;;5.50;54.01
68456;BME280;55437;55.046;38.838;2023-03-03T08:35:55;98480.44;;;5.58;53.61
68456;BME280;55437;55.046;38.838;2023-03-03T08:38:21;98476.31;;;5.55;53.46
68456;BME280;55437;55.046;38.838;2023-03-03T08:40:48;98472.75;;;5.59;53.29
68456;BME280;55437;55.046;38.838;2023-03-03T08:43:14;98484.22;;;5.71;53.15
68456;BME280;55437;55.046;38.838;2023-03-03T08:45:44;98476.53;;;5.72;52.78
68456;BME280;55437;55.046;38.838;2023-03-03T08:48:11;98485.72;;;5.78;52.69
68456;BME280;55437;55.046;38.838;2023-03-03T08:50:37;98485.03;;;5.98;52.26
68456;BME280;55437;55.046;38.838;2023-03-03T08:53:03;98480.25;;;6.13;51.80
68456;BME280;55437;55.046;38.838;2023-03-03T08:55:29;98473.44;;;6.14;51.80
68456;BME280;55437;55.046;38.838;2023-03-03T08:57:55;98479.47;;;6.11;51.78
68456;BME280;55437;55.046;38.838;2023-03-03T09:00:21;98485.53;;;6.07;51.99
68456;BME280;55437;55.046;38.838;2023-03-03T09:02:49;98486.38;;;6.08;52.00
68456;BME280;55437;55.046;38.838;2023-03-03T09:05:16;98478.22;;;5.98;52.03
68456;BME280;55437;55.046;38.838;2023-03-03T09:07:43;98484.34;;;5.93;52.25
68456;BME280;55437;55.046;38.838;2023-03-03T09:10:13;98486.81;;;5.96;51.86
68456;BME280;55437;55.046;38.838;2023-03-03T09:13:06;98485.66;;;5.79;52.11
68456;BME280;55437;55.046;38.838;2023-03-03T09:15:34;98483.41;;;5.70;52.38
68456;BME280;55437;55.046;38.838;2023-03-03T09:20:39;98487.28;;;5.56;52.54
68456;BME280;55437;55.046;38.838;2023-03-03T09:23:40;98488.84;;;5.60;52.28
68456;BME280;55437;55.046;38.838;2023-03-03T09:28:54;98495.19;;;5.48;52.74
68456;BME280;55437;55.046;38.838;2023-03-03T09:31:44;98496.13;;;5.46;52.53
68456;BME280;55437;55.046;38.838;2023-03-03T09:34:26;98499.22;;;5.29;52.98
68456;BME280;55437;55.046;38.838;2023-03-03T09:36:55;98490.72;;;5.30;53.00
68456;BME280;55437;55.046;38.838;2023-03-03T09:39:29;98494.00;;;5.32;53.39
68456;BME280;55437;55.046;38.838;2023-03-03T09:56:18;98481.50;;;5.77;52.39
68456;BME280;55437;55.046;38.838;2023-03-03T10:01:38;98480.06;;;5.68;52.53
68456;BME280;55437;55.046;38.838;2023-03-03T10:10:19;98485.91;;;5.72;52.72
68456;BME280;55437;55.046;38.838;2023-03-03T10:13:20;98481.78;;;5.68;52.45
68456;BME280;55437;55.046;38.838;2023-03-03T10:16:12;98486.13;;;5.66;52.94
68456;BME280;55437;55.046;38.838;2023-03-03T10:19:07;98481.97;;;5.63;52.87
68456;BME280;55437;55.046;38.838;2023-03-03T10:22:06;98483.16;;;5.53;52.95
68456;BME280;55437;55.046;38.838;2023-03-03T10:24:55;98492.03;;;5.41;52.92
68456;BME280;55437;55.046;38.838;2023-03-03T10:27:42;98482.50;;;5.47;52.60
68456;BME280;55437;55.046;38.838;2023-03-03T10:33:08;98478.47;;;5.41;52.69
68456;BME280;55437;55.046;38.838;2023-03-03T10:52:49;98487.03;;;5.12;53.58
68456;BME280;55437;55.046;38.838;2023-03-03T10:55:32;98487.84;;;5.13;53.57
68456;BME280;55437;55.046;38.838;2023-03-03T11:00:55;98495.69;;;5.33;53.33
68456;BME280;55437;55.046;38.838;2023-03-03T11:09:33;98502.78;;;5.74;52.37
68456;BME280;55437;55.046;38.838;2023-03-03T11:20:35;98491.91;;;6.42;50.99
68456;BME280;55437;55.046;38.838;2023-03-03T11:31:37;98491.50;;;6.98;49.58
68456;BME280;55437;55.046;38.838;2023-03-03T11:36:48;98489.38;;;7.09;48.96
68456;BME280;55437;55.046;38.838;2023-03-03T11:39:19;98492.19;;;7.02;48.87
68456;BME280;55437;55.046;38.838;2023-03-03T11:44:52;98495.00;;;6.96;48.64
68456;BME280;55437;55.046;38.838;2023-03-03T11:49:50;98496.91;;;7.12;48.36
68456;BME280;55437;55.046;38.838;2023-03-03T11:52:30;98493.16;;;7.21;48.13
68456;BME280;55437;55.046;38.838;2023-03-03T11:55:20;98501.38;;;7.28;47.54
68456;BME280;55437;55.046;38.838;2023-03-03T11:57:57;98490.88;;;7.13;47.51
68456;BME280;55437;55.046;38.838;2023-03-03T12:03:24;98494.06;;;6.98;47.50
68456;BME280;55437;55.046;38.838;2023-03-03T12:09:02;98501.63;;;6.78;47.66
68456;BME280;55437;55.046;38.838;2023-03-03T12:14:42;98502.66;;;6.74;48.17
68456;BME280;55437;55.046;38.838;2023-03-03T12:17:45;98500.38;;;6.66;48.43
68456;BME280;55437;55.046;38.838;2023-03-03T12:26:01;98506.44;;;6.64;48.01
68456;BME280;55437;55.046;38.838;2023-03-03T12:28:52;98500.09;;;6.74;48.07
68456;BME280;55437;55.046;38.838;2023-03-03T12:37:22;98489.28;;;6.67;48.20
68456;BME280;55437;55.046;38.838;2023-03-03T12:40:10;98498.78;;;6.64;48.41
68456;BME280;55437;55.046;38.838;2023-03-03T12:53:29;98495.72;;;6.54;47.70
68456;BME280;55437;55.046;38.838;2023-03-03T12:56:05;98494.69;;;6.60;47.56
68456;BME280;55437;55.046;38.838;2023-03-03T13:15:12;98488.19;;;6.96;46.42
68456;BME280;55437;55.046;38.838;2023-03-03T13:18:14;98487.75;;;7.07;46.26
68456;BME280;55437;55.046;38.838;2023-03-03T13:20:53;98486.81;;;7.09;46.02
68456;BME280;55437;55.046;38.838;2023-03-03T13:25:59;98487.56;;;6.90;46.04
68456;BME280;55437;55.046;38.838;2023-03-03T13:31:48;98487.19;;;6.55;45.92
68456;BME280;55437;55.046;38.838;2023-03-03T13:35:17;98488.59;;;6.40;45.86
68456;BME280;55437;55.046;38.838;2023-03-03T13:37:31;98487.41;;;6.27;46.12
68456;BME280;55437;55.046;38.838;2023-03-03T13:40:03;98492.59;;;6.24;45.94
68456;BME280;55437;55.046;38.838;2023-03-03T13:45:00;98487.00;;;6.14;46.08
68456;BME280;55437;55.046;38.838;2023-03-03T13:52:30;98485.09;;;5.96;47.03
68456;BME280;55437;55.046;38.838;2023-03-03T13:55:11;98487.94;;;5.87;47.47
68456;BME280;55437;55.046;38.838;2023-03-03T13:57:50;98490.53;;;5.86;47.73
68456;BME280;55437;55.046;38.838;2023-03-03T14:00:38;98489.41;;;5.94;47.64
68456;BME280;55437;55.046;38.838;2023-03-03T14:06:08;98484.47;;;5.90;47.93
68456;BME280;55437;55.046;38.838;2023-03-03T14:19:31;98495.22;;;5.98;48.23
68456;BME280;55437;55.046;38.838;2023-03-03T14:29:42;98510.00;;;5.62;48.72
68456;BME280;55437;55.046;38.838;2023-03-03T14:31:49;98514.94;;;5.41;49.20
68456;BME280;55437;55.046;38.838;2023-03-03T14:36:48;98519.72;;;4.96;52.65
68456;BME280;55437;55.046;38.838;2023-03-03T14:39:35;98526.81;;;4.87;53.58
68456;BME280;55437;55.046;38.838;2023-03-03T14:42:15;98520.25;;;4.80;54.10
68456;BME280;55437;55.046;38.838;2023-03-03T14:44:54;98502.44;;;4.80;54.20
68456;BME280;55437;55.046;38.838;2023-03-03T14:47:25;98514.00;;;4.90;54.28
68456;BME280;55437;55.046;38.838;2023-03-03T14:49:56;98523.09;;;4.97;54.13
68456;BME280;55437;55.046;38.838;2023-03-03T14:52:27;98528.06;;;5.01;53.84
68456;BME280;55437;55.046;38.838;2023-03-03T14:54:58;98534.22;;;4.94;54.00
68456;BME280;55437;55.046;38.838;2023-03-03T15:00:26;98523.94;;;4.40;54.91
68456;BME280;55437;55.046;38.838;2023-03-03T15:05:28;98519.09;;;4.32;54.65
68456;BME280;55437;55.046;38.838;2023-03-03T15:07:58;98516.50;;;4.34;54.44
68456;BME280;55437;55.046;38.838;2023-03-03T15:10:39;98521.84;;;4.23;54.42
68456;BME280;55437;55.046;38.838;2023-03-03T15:18:26;98532.38;;;3.79;55.00
68456;BME280;55437;55.046;38.838;2023-03-03T15:21:07;98537.69;;;3.70;55.00
68456;BME280;55437;55.046;38.838;2023-03-03T15:26:34;98537.44;;;3.45;54.96
68456;BME280;55437;55.046;38.838;2023-03-03T15:29:15;98532.31;;;3.48;55.03
68456;BME280;55437;55.046;38.838;2023-03-03T15:32:38;98531.31;;;3.53;54.83
68456;BME280;55437;55.046;38.838;2023-03-03T15:34:49;98530.69;;;3.45;54.92
68456;BME280;55437;55.046;38.838;2023-03-03T15:37:41;98530.69;;;3.45;54.61
68456;BME280;55437;55.046;38.838;2023-03-03T15:43:06;98538.75;;;3.61;54.67
68456;BME280;55437;55.046;38.838;2023-03-03T15:57:04;98538.84;;;3.22;55.20
68456;BME280;55437;55.046;38.838;2023-03-03T16:03:25;98539.22;;;3.06;55.75
68456;BME280;55437;55.046;38.838;2023-03-03T16:05:51;98552.66;;;3.09;55.68
68456;BME280;55437;55.046;38.838;2023-03-03T16:08:22;98548.38;;;3.13;55.24
68456;BME280;55437;55.046;38.838;2023-03-03T16:12:20;98550.03;;;3.14;55.28
68456;BME280;55437;55.046;38.838;2023-03-03T16:28:54;98552.47;;;3.17;54.75
68456;BME280;55437;55.046;38.838;2023-03-03T16:31:36;98554.97;;;3.18;54.48
68456;BME280;55437;55.046;38.838;2023-03-03T16:37:19;98548.81;;;3.29;54.05
68456;BME280;55437;55.046;38.838;2023-03-03T16:42:51;98550.03;;;3.14;54.39
68456;BME280;55437;55.046;38.838;2023-03-03T16:45:37;98551.56;;;3.19;54.34
68456;BME280;55437;55.046;38.838;2023-03-03T16:48:20;98547.50;;;3.14;54.33
68456;BME280;55437;55.046;38.838;2023-03-03T16:56:19;98555.75;;;3.22;55.01
68456;BME280;55437;55.046;38.838;2023-03-03T17:02:25;98554.34;;;3.09;55.64
68456;BME280;55437;55.046;38.838;2023-03-03T17:05:10;98550.91;;;3.13;55.85
68456;BME280;55437;55.046;38.838;2023-03-03T17:10:51;98552.25;;;3.26;55.57
68456;BME280;55437;55.046;38.838;2023-03-03T17:19:15;98550.34;;;3.37;55.51
68456;BME280;55437;55.046;38.838;2023-03-03T17:27:53;98540.19;;;3.37;55.71
68456;BME280;55437;55.046;38.838;2023-03-03T17:30:32;98549.41;;;3.40;55.53
68456;BME280;55437;55.046;38.838;2023-03-03T17:33:12;98545.13;;;3.42;55.67
68456;BME280;55437;55.046;38.838;2023-03-03T17:39:01;98545.63;;;3.56;54.94
68456;BME280;55437;55.046;38.838;2023-03-03T17:46:56;98551.22;;;3.70;54.92
68456;BME280;55437;55.046;38.838;2023-03-03T17:50:42;98546.84;;;3.75;55.13
68456;BME280;55437;55.046;38.838;2023-03-03T17:57:47;98559.59;;;3.74;54.90
68456;BME280;55437;55.046;38.838;2023-03-03T18:00:44;98552.03;;;3.71;55.06
68456;BME280;55437;55.046;38.838;2023-03-03T18:22:46;98564.91;;;3.28;55.42
68456;BME280;55437;55.046;38.838;2023-03-03T18:38:54;98550.75;;;3.19;56.40
68456;BME280;55437;55.046;38.838;2023-03-03T18:41:25;98553.34;;;3.16;56.50
68456;BME280;55437;55.046;38.838;2023-03-03T18:59:40;98546.91;;;2.63;57.81
68456;BME280;55437;55.046;38.838;2023-03-03T19:02:23;98546.19;;;2.56;57.49
68456;BME280;55437;55.046;38.838;2023-03-03T19:18:17;98545.53;;;2.05;59.23
68456;BME280;55437;55.046;38.838;2023-03-03T19:20:54;98556.56;;;2.01;59.53